Wells, Maine
Current Conditions -  °F | °C
As of 6:55 PM on Sunday 21 Dec 2014 (Local Time) from KSFM Reporting Station
Overcast Overcast  
Wind Chill: 25°   Ceiling: 4300
Heat Index: 30°   Visibility: 10mi
Dew Point: 18°   Wind: 5mph
Humidity: 60%   Direction: 10°N
Pressure: 30.36"   Gusts: NA
Location:  43.28°N, 70.58°W
Report Text: KSFM 212355Z AUTO 01004KT 10SM OVC043 M01/M08 A3036 RMK AO1 10000 21020 400001070 52014
Loading
Personal Weather Stations






























Interactive Weather Map New forecast layout! Learn more

10-Day Weather Forecast

Advertisements
Track Severe Weather on mobile